createdAt,value
2023-04-05T00:00:22.088Z,5.13
2023-04-05T00:05:29.651Z,5.00
2023-04-05T00:10:31.523Z,4.94
2023-04-05T00:15:33.176Z,4.96
2023-04-05T00:20:37.646Z,4.87
2023-04-05T00:25:38.986Z,4.69
2023-04-05T00:30:40.764Z,4.60
2023-04-05T00:35:42.293Z,4.50
2023-04-05T00:40:43.922Z,4.51
2023-04-05T00:45:45.967Z,4.51
2023-04-05T00:50:49.920Z,4.53
2023-04-05T00:55:54.441Z,4.45
2023-04-05T01:01:13.710Z,4.38
2023-04-05T01:06:37.688Z,4.14
2023-04-05T01:11:40.582Z,4.01
2023-04-05T01:16:41.940Z,3.98
2023-04-05T01:22:21.994Z,3.96
2023-04-05T01:27:41.624Z,3.82
2023-04-05T01:33:00.450Z,3.71
2023-04-05T01:38:04.499Z,3.56
2023-04-05T01:43:13.808Z,3.45
2023-04-05T01:48:16.002Z,3.26
2023-04-05T01:53:17.569Z,3.17
2023-04-05T01:58:18.989Z,3.23
2023-04-05T02:03:21.313Z,3.28
2023-04-05T02:08:22.741Z,3.12
2023-04-05T02:13:25.737Z,3.05
2023-04-05T02:18:32.880Z,3.13
2023-04-05T02:23:35.416Z,2.98
2023-04-05T02:28:37.054Z,2.91
2023-04-05T02:33:39.212Z,2.88
2023-04-05T02:38:40.974Z,2.74
2023-04-05T02:43:42.331Z,2.64
2023-04-05T02:48:45.462Z,2.62
2023-04-05T02:53:48.060Z,2.69
2023-04-05T02:58:49.511Z,2.74
2023-04-05T03:03:51.403Z,2.75
2023-04-05T03:08:53.738Z,2.72
2023-04-05T03:13:55.116Z,2.70
2023-04-05T03:18:57.079Z,2.70
2023-04-05T03:23:58.430Z,2.68
2023-04-05T03:28:59.869Z,2.64
2023-04-05T03:34:01.364Z,2.60
2023-04-05T03:39:02.725Z,2.54
2023-04-05T03:44:04.644Z,2.48
2023-04-05T03:49:07.253Z,2.45
2023-04-05T03:54:08.628Z,2.42
2023-04-05T03:59:10.203Z,2.38
2023-04-05T04:04:13.512Z,2.41
2023-04-05T04:09:14.870Z,2.35
2023-04-05T04:14:16.353Z,2.34
2023-04-05T04:19:18.561Z,2.34
2023-04-05T04:24:20.151Z,2.26
2023-04-05T04:29:30.925Z,2.26
2023-04-05T04:34:34.623Z,2.25
2023-04-05T04:39:39.643Z,2.20
2023-04-05T04:44:42.529Z,2.12
2023-04-05T04:49:43.946Z,2.11
2023-04-05T04:54:47.228Z,2.10
2023-04-05T04:59:48.614Z,2.13
2023-04-05T05:04:50.220Z,2.18
2023-04-05T05:09:52.412Z,2.19
2023-04-05T05:14:53.791Z,2.21
2023-04-05T05:19:56.415Z,2.20
2023-04-05T05:24:57.853Z,2.23
2023-04-05T05:29:59.630Z,2.30
2023-04-05T05:35:00.969Z,2.38
2023-04-05T05:40:03.297Z,2.47
2023-04-05T05:45:05.883Z,2.56
2023-04-05T05:50:09.103Z,2.66
2023-04-05T05:55:10.761Z,2.76
2023-04-05T06:00:12.749Z,2.86
2023-04-05T06:05:14.212Z,2.83
2023-04-05T06:10:15.599Z,2.97
2023-04-05T06:15:17.078Z,3.19
2023-04-05T06:20:18.492Z,3.34
2023-04-05T06:25:19.903Z,3.49
2023-04-05T06:30:21.371Z,3.66
2023-04-05T06:35:23.637Z,3.77
2023-04-05T06:40:25.213Z,3.96
2023-04-05T06:45:26.547Z,4.10
2023-04-05T06:50:27.916Z,4.13
2023-04-05T06:55:29.776Z,4.33
2023-04-05T07:00:31.450Z,4.52
2023-04-05T07:05:33.025Z,4.63
2023-04-05T07:10:34.506Z,4.74
2023-04-05T07:15:35.973Z,4.95
2023-04-05T07:20:37.896Z,5.17
2023-04-05T07:25:42.090Z,5.45
2023-04-05T07:30:43.850Z,5.59
2023-04-05T07:35:45.341Z,5.75
2023-04-05T07:40:50.953Z,5.99
2023-04-05T07:46:00.611Z,6.19
2023-04-05T07:51:09.881Z,6.30
2023-04-05T07:56:12.374Z,6.50
2023-04-05T08:01:13.757Z,6.65
2023-04-05T08:06:19.331Z,6.78
2023-04-05T08:11:21.566Z,6.93
2023-04-05T08:16:23.020Z,7.16
2023-04-05T08:21:24.453Z,7.38
2023-04-05T08:26:25.871Z,7.50
2023-04-05T08:31:27.336Z,7.72
2023-04-05T08:36:28.906Z,7.82
2023-04-05T08:41:40.858Z,7.98
2023-04-05T08:46:44.014Z,8.13
2023-04-05T08:51:45.408Z,8.28
2023-04-05T08:56:49.154Z,8.45
2023-04-05T09:01:51.544Z,8.50
2023-04-05T09:06:57.446Z,8.74
2023-04-05T09:11:59.406Z,8.76
2023-04-05T09:17:04.383Z,8.78
2023-04-05T09:22:08.614Z,8.99
2023-04-05T09:27:11.795Z,9.26
2023-04-05T09:32:15.293Z,9.42
2023-04-05T09:37:21.758Z,9.46
2023-04-05T09:42:23.459Z,9.63
2023-04-05T09:47:31.001Z,9.84
2023-04-05T09:52:33.098Z,9.96
2023-04-05T09:57:37.001Z,10.19
2023-04-05T10:02:39.922Z,10.33
2023-04-05T10:07:45.236Z,10.38
2023-04-05T10:12:48.007Z,10.37
2023-04-05T10:17:53.242Z,10.51
2023-04-05T10:23:13.235Z,10.46
2023-04-05T10:28:35.114Z,10.80
2023-04-05T10:33:47.561Z,11.14
2023-04-05T10:39:00.131Z,11.43
2023-04-05T10:44:09.199Z,11.76
2023-04-05T10:49:29.185Z,12.28
2023-04-05T10:54:36.559Z,12.68
2023-04-05T10:59:43.779Z,13.15
2023-04-05T11:04:45.523Z,13.24
2023-04-05T11:10:04.303Z,13.52
2023-04-05T11:15:30.080Z,13.63
2023-04-05T11:20:41.479Z,13.92
2023-04-05T11:25:50.481Z,14.03
2023-04-05T11:30:56.463Z,14.27
2023-04-05T11:36:02.896Z,14.11
2023-04-05T11:41:12.445Z,14.28
2023-04-05T11:46:15.507Z,14.41
2023-04-05T11:51:20.476Z,14.55
2023-04-05T11:56:22.199Z,14.71
2023-04-05T12:01:23.526Z,14.70
2023-04-05T12:06:26.118Z,14.54
2023-04-05T12:11:30.915Z,14.48
2023-04-05T12:16:32.343Z,14.80
2023-04-05T12:21:33.797Z,15.09
2023-04-05T12:26:35.758Z,15.45
2023-04-05T12:31:50.318Z,15.60
2023-04-05T12:36:52.294Z,16.06
2023-04-05T12:41:58.924Z,16.96
2023-04-05T12:47:09.058Z,17.34
2023-04-05T12:52:11.503Z,16.97
2023-04-05T12:57:14.205Z,16.91
2023-04-05T13:02:15.614Z,17.12
2023-04-05T13:07:17.040Z,16.99
2023-04-05T13:12:18.454Z,16.96
2023-04-05T13:17:19.880Z,17.27
2023-04-05T13:22:21.440Z,17.30
2023-04-05T13:27:22.910Z,16.98
2023-04-05T13:32:24.432Z,16.79
2023-04-05T13:37:26.394Z,16.98
2023-04-05T13:42:27.924Z,17.45
2023-04-05T13:47:29.284Z,17.91
2023-04-05T13:52:30.672Z,18.01
2023-04-05T13:57:32.367Z,18.48
2023-04-05T14:02:34.034Z,18.35
2023-04-05T14:07:35.777Z,18.69
2023-04-05T14:12:37.160Z,18.56
2023-04-05T14:17:38.623Z,18.99
2023-04-05T14:22:40.248Z,19.48
2023-04-05T14:27:42.392Z,19.49
2023-04-05T14:32:45.171Z,19.39
2023-04-05T14:37:46.525Z,19.49
2023-04-05T14:42:50.166Z,19.88
2023-04-05T14:47:51.813Z,22.22
2023-04-05T14:52:53.698Z,22.72
2023-04-05T14:57:55.220Z,23.13
2023-04-05T15:02:56.658Z,23.10
2023-04-05T15:07:58.039Z,21.90
2023-04-05T15:12:59.388Z,21.31
2023-04-05T15:18:01.340Z,20.77
2023-04-05T15:23:02.875Z,19.90
2023-04-05T15:28:06.731Z,19.99
2023-04-05T15:33:08.455Z,20.54
2023-04-05T15:38:09.844Z,20.37
2023-04-05T15:43:11.296Z,19.75
2023-04-05T15:48:15.717Z,19.31
2023-04-05T15:53:17.235Z,19.01
2023-04-05T15:58:18.575Z,18.73
2023-04-05T16:03:19.989Z,18.47
2023-04-05T16:08:21.360Z,18.33
2023-04-05T16:13:23.232Z,18.17
2023-04-05T16:18:25.917Z,18.01
2023-04-05T16:23:27.330Z,17.90
2023-04-05T16:28:28.787Z,17.74
2023-04-05T16:33:30.322Z,17.81
2023-04-05T16:38:31.682Z,17.88
2023-04-05T16:43:33.053Z,17.83
2023-04-05T16:48:34.493Z,17.78
2023-04-05T16:53:35.881Z,17.75
2023-04-05T16:58:37.251Z,17.58
2023-04-05T17:03:38.708Z,17.56
2023-04-05T17:08:40.293Z,17.38
2023-04-05T17:13:41.966Z,16.93
2023-04-05T17:18:43.329Z,16.49
2023-04-05T17:23:44.785Z,16.13
2023-04-05T17:28:46.135Z,15.75
2023-04-05T17:33:48.797Z,15.35
2023-04-05T17:38:50.656Z,14.90
2023-04-05T17:43:52.016Z,14.48
2023-04-05T17:48:54.023Z,14.15
2023-04-05T17:53:57.373Z,13.84
2023-04-05T17:58:58.746Z,13.52
2023-04-05T18:04:01.053Z,13.22
2023-04-05T18:09:03.440Z,12.96
2023-04-05T18:14:05.448Z,12.70
2023-04-05T18:19:07.418Z,12.43
2023-04-05T18:24:10.560Z,12.19
2023-04-05T18:29:12.280Z,11.81
2023-04-05T18:34:13.733Z,11.56
2023-04-05T18:39:16.215Z,11.32
2023-04-05T18:44:17.551Z,11.08
2023-04-05T18:49:19.047Z,10.82
2023-04-05T18:54:20.850Z,10.59
2023-04-05T18:59:22.772Z,10.39
2023-04-05T19:04:24.182Z,9.99
2023-04-05T19:09:26.503Z,9.80
2023-04-05T19:14:27.853Z,9.64
2023-04-05T19:19:29.241Z,9.29
2023-04-05T19:24:30.769Z,8.95
2023-04-05T19:29:34.473Z,8.85
2023-04-05T19:34:37.578Z,8.62
2023-04-05T19:39:39.449Z,8.57
2023-04-05T19:44:46.532Z,8.53
2023-04-05T19:49:51.920Z,8.46
2023-04-05T19:54:53.290Z,8.32
2023-04-05T19:59:54.687Z,8.09
2023-04-05T20:04:56.151Z,7.82
2023-04-05T20:09:57.545Z,7.60
2023-04-05T20:14:58.891Z,7.60
2023-04-05T20:20:01.392Z,7.52
2023-04-05T20:25:38.923Z,7.44
2023-04-05T20:30:40.353Z,7.32
2023-04-05T20:40:43.074Z,7.15
2023-04-05T20:45:44.445Z,7.09
2023-04-05T20:50:46.169Z,7.01
2023-04-05T20:55:50.427Z,6.99
2023-04-05T21:00:52.332Z,6.94
2023-04-05T21:05:53.859Z,6.81
2023-04-05T21:10:55.557Z,6.74
2023-04-05T21:15:57.895Z,6.65
2023-04-05T21:21:00.293Z,6.55
2023-04-05T21:26:02.204Z,6.41
2023-04-05T21:31:03.665Z,6.27
2023-04-05T21:36:05.153Z,6.11
2023-04-05T21:41:06.622Z,5.92
2023-04-05T21:46:08.134Z,5.91
2023-04-05T21:51:09.486Z,5.86
2023-04-05T21:56:10.918Z,5.79
2023-04-05T22:01:13.430Z,5.65
2023-04-05T22:06:14.788Z,5.49
2023-04-05T22:11:16.153Z,5.50
2023-04-05T22:16:17.649Z,5.44
2023-04-05T22:21:19.017Z,5.39
2023-04-05T22:26:20.760Z,5.17
2023-04-05T22:31:22.196Z,5.24
2023-04-05T22:36:23.706Z,5.21
2023-04-05T22:41:25.031Z,5.19
2023-04-05T22:46:27.521Z,4.91
2023-04-05T22:51:28.924Z,4.87
2023-04-05T22:56:31.474Z,4.84
2023-04-05T23:01:32.846Z,4.78
2023-04-05T23:06:34.195Z,4.57
2023-04-05T23:11:35.597Z,4.20
2023-04-05T23:16:36.955Z,4.33
2023-04-05T23:21:38.302Z,4.46
2023-04-05T23:26:39.650Z,4.50
2023-04-05T23:31:42.068Z,4.50
2023-04-05T23:36:43.506Z,4.42
2023-04-05T23:41:44.863Z,4.16
2023-04-05T23:46:46.698Z,4.09
2023-04-05T23:51:48.145Z,4.12
2023-04-05T23:56:49.589Z,4.22
